Current Month

Pierce College

Hourly Data | America/Los_Angeles
as of 5/23/22 7:46 AM PDT
Date & Time Temp Max (°F) Temp Min (°F) RH (%) Dew Pt (°F) Latest Rain (In) Soil Temp (°F) Soil Moist (%) Wind Spd (mph) Wind Dir (°) Wind Gust (mph) Leaf Wet Raw (mV) Net Radiation (W/m²) Evap Pan Max Wind (mph) Evap Pan H2O Max Temp (°F) Evap Pan Level (In)
5/23/22 - 0700 54.0 49.8 90 48.8 0.00 72.5 29.5 0.4 S | 178 2.4 318 9 0.0 51.4 3.8
5/23/22 - 0600 50.8 49.7 90 47.3 0.00 73.1 29.5 0.3 SSE | 162 1.8 325 -16 0.0 45.8 3.8
5/23/22 - 0500 51.3 50.1 89 47.4 0.00 71.8 29.6 0.4 S | 176 1.8 302 -20 0.0 45.6 3.8
5/23/22 - 0400 51.6 50.8 87 47.6 0.00 73.7 29.6 0.3 SSE | 161 1.2 266 -24 0.0 45.8 3.8
5/23/22 - 0300 52.5 50.8 86 47.6 0.00 73.8 29.6 0.5 S | 176 2.5 260 -31 0.0 46.2 3.8
5/23/22 - 0200 53.3 51.8 84 47.9 0.00 73.2 29.6 0.6 S | 187 2.0 250 -42 0.0 47.1 3.8
5/23/22 - 0100 54.7 53.0 82 48.3 0.00 72.9 29.6 0.4 S | 182 2.2 263 -54 0.0 49.9 3.8
5/23/22 - 0000 56.0 54.5 78 48.7 0.00 73.5 29.6 0.3 ESE | 120 2.5 271 -62 0.0 51.8 3.8
5/22/22 - 2300 56.8 55.8 76 48.8 0.00 72.9 29.6 0.5 ESE | 108 2.7 272 -65 1.7 53.5 3.8
5/22/22 - 2200 61.0 56.8 71 49.1 0.00 73.9 29.6 0.4 ENE | 71 2.7 271 -69 1.3 58.3 3.8
5/22/22 - 2100 65.7 60.8 61 49.2 0.00 73.2 29.6 0.9 ENE | 58 3.1 269 -75 2.3 64.2 3.8
5/22/22 - 2000 69.6 65.5 53 50.1 0.00 73.9 29.6 1.3 ESE | 118 5.1 268 -55 2.0 72.0 3.8
5/22/22 - 1900 74.8 69.4 47 50.4 0.00 73.6 29.6 2.8 S | 170 6.9 266 47 2.5 80.5 3.8
5/22/22 - 1800 78.1 74.2 41 50.1 0.00 72.6 29.6 3.5 S | 179 9.2 266 209 3.0 89.5 3.8
5/22/22 - 1700 80.2 78.0 37 50.3 0.00 72.5 29.5 2.2 ESE | 121 7.0 266 354 3.6 96.7 3.8
5/22/22 - 1600 79.5 77.2 38 50.4 0.00 72.1 29.4 2.8 S | 188 9.1 265 483 3.1 105.1 3.8
5/22/22 - 1500 78.0 75.2 41 51.2 0.00 72.5 29.4 3.1 S | 175 7.7 266 576 3.3 123.5 3.8
5/22/22 - 1400 77.4 74.6 43 52.0 0.00 71.1 29.4 3.1 SSE | 150 11.4 266 630 4.1 136.0 3.8
5/22/22 - 1300 77.9 75.0 41 51.2 0.00 72.4 29.4 2.3 ENE | 77 9.1 264 638 4.0 147.2 3.8
5/22/22 - 1200 77.7 72.8 40 48.7 0.00 71.0 29.3 1.9 NE | 51 5.5 264 603 2.8 141.6 3.8
5/22/22 - 1100 74.9 68.9 45 48.6 0.00 71.3 29.3 1.5 W | 273 5.7 264 532 2.0 134.2 3.8
5/22/22 - 1000 70.0 63.8 52 48.8 0.00 71.6 29.4 0.8 NW | 318 4.8 265 422 1.9 123.4 3.8
5/22/22 - 0900 63.9 57.6 66 48.4 0.00 72.2 29.4 1.0 NE | 43 3.2 266 142 1.8 90.2 3.8
5/22/22 - 0800 57.7 52.6 78 48.5 0.00 72.2 29.5 0.3 N | 8 2.4 275 36 0.9 57.1 3.8
5/22/22 - 0700 52.8 48.7 89 47.4 0.00 71.2 29.5 0.1 SSE | 159 0.9 308 4 0.0 47.4 3.8
5/22/22 - 0600 50.1 48.6 88 46.0 0.00 72.4 29.6 0.5 SSE | 162 1.9 306 -20 0.0 42.2 3.8
5/22/22 - 0500 51.1 49.5 86 46.4 0.00 71.6 29.6 0.2 S | 171 1.3 275 -28 0.0 43.8 3.8
5/22/22 - 0400 52.3 50.8 84 46.6 0.00 72.0 29.7 0.3 S | 188 1.7 266 -41 0.0 45.0 3.8
5/22/22 - 0300 53.4 51.9 80 46.6 0.00 73.2 29.6 0.1 SSE | 150 1.3 258 -54 0.0 47.4 3.8
5/22/22 - 0200 55.7 53.4 75 46.8 0.00 73.3 29.7 0.4 SSW | 193 2.6 274 -59 0.0 51.3 3.8
5/22/22 - 0100 56.6 55.6 72 47.2 0.00 71.8 29.7 2.2 SSW | 196 5.2 271 -63 1.5 52.7 3.8
5/22/22 - 0000 57.7 56.4 70 47.3 0.00 72.7 29.7 2.2 SSW | 212 4.2 271 -63 1.7 54.1 3.8
5/21/22 - 2300 59.1 57.5 66 47.2 0.00 72.4 29.7 2.3 SW | 218 6.1 270 -65 2.3 55.1 3.8
5/21/22 - 2200 61.3 59.0 63 47.3 0.00 72.6 29.7 1.5 WSW | 242 4.4 269 -67 1.6 58.3 3.8
5/21/22 - 2100 63.9 61.3 60 48.3 0.00 73.6 29.7 2.0 W | 276 6.9 269 -71 2.2 64.4 3.8
5/21/22 - 2000 66.9 63.7 55 49.1 0.00 74.0 29.7 3.0 WSW | 248 8.1 268 -28 2.7 72.2 3.8
5/21/22 - 1900 69.2 66.0 51 49.0 0.00 72.8 29.7 3.5 S | 177 7.8 268 56 3.2 80.7 3.8
5/21/22 - 1800 71.3 68.8 48 49.5 0.00 73.3 29.7 3.5 SSW | 193 8.0 267 178 3.1 86.8 3.8
5/21/22 - 1700 71.5 68.9 48 50.1 0.00 71.7 29.7 3.7 S | 185 8.9 266 326 5.6 94.5 3.8
5/21/22 - 1600 71.6 69.4 48 50.2 0.00 72.7 29.6 3.2 SW | 221 10.1 267 347 2.8 102.1 3.8
5/21/22 - 1500 70.7 68.4 50 50.2 0.00 71.6 29.6 4.0 SSE | 164 9.0 266 405 4.2 99.3 3.8
5/21/22 - 1400 71.3 68.1 52 51.1 0.00 72.1 29.6 4.0 S | 171 8.9 267 378 3.3 113.4 3.8
5/21/22 - 1300 72.1 66.9 53 51.2 0.00 71.2 29.6 3.0 S | 170 10.7 266 419 3.6 120.3 3.8
5/21/22 - 1200 70.1 64.9 56 51.3 0.00 71.4 29.6 3.0 ESE | 120 8.0 267 438 3.2 122.4 3.8
5/21/22 - 1100 67.7 64.9 54 49.0 0.00 72.7 29.7 1.2 E | 96 6.8 268 168 3.7 89.2 3.8
5/21/22 - 1000 65.4 62.2 61 50.0 0.00 72.3 29.7 1.1 ENE | 73 3.4 268 166 2.6 84.6 3.8
5/21/22 - 0900 62.4 60.8 69 51.6 0.00 72.1 29.7 1.5 WSW | 241 4.4 270 92 1.9 74.3 3.8
5/21/22 - 0800 61.0 56.4 78 52.3 0.00 72.4 29.7 1.4 SW | 219 5.0 271 77 1.4 69.5 3.8
5/21/22 - 0700 56.6 53.0 89 51.1 0.00 72.2 29.8 0.7 SSE | 166 2.7 248 7 0.4 55.6 3.8
5/21/22 - 0600 54.9 53.4 87 50.3 0.00 73.2 29.8 0.5 S | 173 1.6 256 -30 0.0 49.6 3.8
5/21/22 - 0500 56.6 54.6 84 50.8 0.00 73.1 29.8 1.0 SSW | 196 2.0 252 -47 0.0 53.7 3.8
5/21/22 - 0400 57.9 56.4 79 50.9 0.00 73.6 29.8 0.9 SSW | 197 2.3 273 -40 0.0 58.5 3.8
5/21/22 - 0300 59.0 57.4 77 51.0 0.00 73.1 29.8 0.4 S | 190 1.9 273 -30 0.0 59.0 3.8
5/21/22 - 0200 58.8 58.1 76 50.9 0.00 73.2 29.9 1.4 SSW | 196 4.2 271 -32 0.6 59.0 3.8
5/21/22 - 0100 59.7 58.6 75 51.4 0.00 73.1 29.9 1.6 S | 176 3.9 272 -40 1.7 60.5 3.8
5/21/22 - 0000 59.8 58.8 76 51.6 0.00 73.4 29.9 0.5 ESE | 122 2.7 272 -38 1.1 59.2 3.8
5/20/22 - 2300 61.1 59.5 73 51.4 0.00 73.4 29.9 0.6 ESE | 106 2.1 271 -39 1.2 61.4 3.8
5/20/22 - 2200 61.4 60.8 70 51.4 0.00 74.1 29.9 1.2 SSE | 150 3.9 271 -25 1.4 62.6 3.8
5/20/22 - 2100 61.5 60.8 70 51.5 0.00 73.3 29.9 1.5 SSW | 194 4.1 270 -18 1.5 64.2 3.8
5/20/22 - 2000 62.3 61.2 69 51.5 0.00 74.1 29.9 2.0 S | 186 4.5 270 -15 1.9 68.0 3.8
5/20/22 - 1900 63.4 62.1 67 51.4 0.00 73.7 29.9 1.8 S | 179 4.6 270 9 1.7 74.0 3.8
5/20/22 - 1800 64.8 62.7 66 51.7 0.00 73.8 29.9 2.5 SE | 137 7.5 269 65 3.3 78.1 3.8
5/20/22 - 1700 66.4 64.3 62 51.5 0.00 73.8 29.9 3.2 SSE | 157 8.0 268 127 3.4 83.3 3.8
5/20/22 - 1600 66.8 65.3 58 51.0 0.00 74.0 29.9 2.4 SE | 138 6.4 268 147 3.8 82.3 3.8
5/20/22 - 1500 66.7 65.2 57 50.6 0.00 73.8 29.9 2.8 SE | 144 8.2 268 151 3.0 83.0 3.8
5/20/22 - 1400 65.6 64.2 61 51.1 0.00 73.4 29.9 3.5 S | 178 9.3 268 134 3.0 83.8 3.8
5/20/22 - 1300 64.7 63.3 63 51.2 0.00 73.6 29.9 4.2 SSW | 208 8.9 268 148 3.4 84.0 3.8
5/20/22 - 1200 64.6 62.8 63 51.0 0.00 73.8 29.9 3.4 SSW | 199 8.9 268 210 2.8 86.7 3.8
5/20/22 - 1100 63.3 61.3 65 50.9 0.00 74.1 30.0 2.5 SSE | 155 7.3 269 230 3.3 83.1 3.8
5/20/22 - 1000 61.6 59.0 71 50.8 0.00 74.5 30.0 1.7 SE | 136 4.9 270 112 2.5 71.8 3.8
5/20/22 - 0900 59.1 57.6 75 50.6 0.00 73.9 30.0 2.1 SE | 126 5.6 271 66 2.2 66.1 3.8
5/20/22 - 0800 58.4 57.0 78 50.8 0.00 74.6 30.0 1.8 ESE | 123 5.3 271 32 2.1 65.1 3.8
5/20/22 - 0700 57.3 56.3 80 50.6 0.00 74.8 30.1 1.8 SE | 132 5.4 272 1 1.9 60.5 3.8
5/20/22 - 0600 56.5 56.0 81 50.4 0.00 74.0 30.1 1.8 ESE | 114 4.9 273 -12 2.6 58.8 3.8
5/20/22 - 0500 56.3 55.9 82 50.8 0.00 75.2 30.1 1.9 ESE | 118 5.6 273 -12 3.5 60.1 3.8
5/20/22 - 0400 56.7 56.0 84 51.7 0.00 75.0 30.1 2.1 SE | 127 5.3 273 -12 2.0 60.7 3.8
5/20/22 - 0300 57.7 56.4 83 52.1 0.00 75.2 30.1 1.8 SE | 128 4.9 268 -12 2.2 61.5 3.8
5/20/22 - 0200 57.8 57.0 84 52.5 0.00 74.9 30.1 1.7 ESE | 107 4.5 273 -12 2.6 62.3 3.8
5/20/22 - 0100 58.2 57.5 83 52.7 0.00 75.5 30.1 1.5 ESE | 113 4.9 273 -12 2.7 63.4 3.8
5/20/22 - 0000 59.0 57.7 81 52.6 0.00 73.9 30.1 1.7 SE | 132 5.6 272 -13 1.9 63.7 3.8
5/19/22 - 2300 58.7 58.0 81 52.5 0.00 74.1 30.2 1.6 SE | 136 4.6 271 -14 1.9 63.6 3.8
5/19/22 - 2200 58.6 57.9 81 52.6 0.00 75.6 30.2 1.9 S | 174 4.3 271 -14 1.7 64.2 3.8
5/19/22 - 2100 59.6 58.0 79 52.2 0.00 75.6 30.1 2.3 S | 170 6.0 271 -36 2.6 62.1 3.8
5/19/22 - 2000 65.6 59.5 69 52.4 0.00 74.3 30.1 2.5 S | 171 5.8 270 -51 2.6 69.0 3.8
5/19/22 - 1900 70.6 64.9 61 53.4 0.00 74.4 30.1 3.5 S | 182 7.9 268 57 2.7 76.5 3.8
5/19/22 - 1800 73.5 69.9 55 54.4 0.00 74.0 30.1 3.0 SSE | 163 6.2 267 212 3.6 82.9 3.8
5/19/22 - 1700 75.8 72.8 52 55.0 0.00 75.0 30.0 3.0 S | 186 7.8 267 362 2.7 89.5 3.8
5/19/22 - 1600 76.0 73.3 51 55.2 0.00 74.6 30.0 4.2 S | 186 8.7 266 489 3.7 96.0 3.8
5/19/22 - 1500 78.8 75.7 47 55.8 0.00 74.1 29.9 2.3 ENE | 67 6.1 266 570 3.5 113.8 3.8
5/19/22 - 1400 77.5 74.2 49 55.5 0.00 73.4 29.9 2.5 ENE | 59 6.1 266 627 3.3 127.0 3.8
5/19/22 - 1300 76.0 70.1 53 54.7 0.00 73.6 29.9 1.9 NE | 55 6.9 266 636 2.9 132.4 3.8
5/19/22 - 1200 72.0 65.4 61 54.1 0.00 72.6 29.9 1.5 NE | 54 6.4 266 568 3.5 127.0 3.8
5/19/22 - 1100 66.0 60.9 71 53.5 0.00 73.3 30.0 1.0 ENE | 60 4.1 268 240 2.1 90.0 3.8
5/19/22 - 1000 61.3 58.5 79 53.2 0.00 73.9 30.1 0.9 E | 88 4.1 271 111 1.5 72.5 3.8
5/19/22 - 0900 59.0 56.9 85 53.2 0.00 74.4 30.1 0.8 NE | 49 3.2 272 58 1.8 68.0 3.8
5/19/22 - 0800 57.2 56.0 88 53.1 0.00 74.0 30.1 1.2 SE | 137 4.2 273 29 1.7 64.7 3.8
5/19/22 - 0700 56.4 55.5 90 52.8 0.00 74.8 30.1 0.8 ESE | 108 2.9 275 2 1.6 60.8 3.8
5/19/22 - 0600 56.1 55.6 89 52.8 0.00 74.0 30.1 0.9 ESE | 113 3.8 274 -6 1.5 59.0 3.8
5/19/22 - 0500 55.9 55.4 89 52.6 0.00 73.4 30.2 1.1 E | 91 4.0 275 -4 1.6 57.9 3.8
5/19/22 - 0400 55.7 54.6 89 51.8 0.00 74.1 30.2 0.8 ESE | 110 3.7 294 -17 1.6 55.2 3.8
5/19/22 - 0300 55.3 54.5 88 51.3 0.00 75.4 30.2 0.3 SSE | 151 2.0 280 -28 0.0 48.8 3.8
5/19/22 - 0200 57.4 55.1 84 51.5 0.00 75.4 30.2 0.2 S | 186 1.4 262 -43 0.0 51.2 3.8
5/19/22 - 0100 59.3 57.2 80 52.0 0.00 75.1 30.2 0.1 ESE | 121 1.2 252 -61 0.0 53.8 3.8
5/19/22 - 0000 60.4 59.1 76 52.3 0.00 75.0 30.2 0.2 ENE | 78 2.6 274 -65 1.2 54.9 3.8
5/18/22 - 2300 61.8 60.0 73 52.2 0.00 75.0 30.2 0.1 E | 85 1.3 272 -63 0.0 57.2 3.8
5/18/22 - 2200 64.7 61.6 68 52.4 0.00 75.7 30.2 0.5 ESE | 114 2.8 270 -68 1.9 64.8 3.8
5/18/22 - 2100 68.8 64.8 62 53.1 0.00 76.0 30.2 0.8 ENE | 57 2.9 268 -73 2.3 67.9 3.8
5/18/22 - 2000 75.6 68.7 53 54.1 0.00 73.8 30.2 1.2 ENE | 63 4.2 268 -60 2.0 76.7 3.8
5/18/22 - 1900 80.2 75.4 46 55.0 0.00 74.9 30.1 1.6 NE | 38 3.9 266 47 2.6 85.7 3.8
5/18/22 - 1800 84.2 79.9 40 55.6 0.00 74.4 30.1 2.1 NE | 54 5.6 266 197 2.8 91.5 3.8
5/18/22 - 1700 87.0 83.0 38 56.0 0.00 73.8 30.1 2.3 ENE | 63 7.9 266 340 5.3 95.6 3.8
5/18/22 - 1600 86.8 82.9 37 55.6 0.00 73.5 30.0 1.5 NE | 34 4.4 265 468 2.6 103.6 3.8
5/18/22 - 1500 83.1 79.7 41 55.2 0.00 72.5 30.0 2.6 ENE | 76 7.2 266 563 3.6 116.9 3.8
5/18/22 - 1400 81.6 77.8 43 54.7 0.00 73.5 30.0 2.4 ENE | 66 5.8 266 619 3.6 127.7 3.8
5/18/22 - 1300 78.2 73.5 46 53.9 0.00 73.2 29.9 2.0 ENE | 64 5.7 265 633 2.9 137.6 3.8
5/18/22 - 1200 74.5 67.2 52 52.8 0.00 73.3 29.9 1.2 NNE | 27 4.0 265 599 2.2 130.1 3.8
5/18/22 - 1100 67.8 62.7 63 52.1 0.00 73.5 29.9 2.0 SW | 222 6.7 266 473 3.0 113.5 3.8
5/18/22 - 1000 63.3 58.8 73 52.0 0.00 74.0 30.0 1.3 WSW | 247 5.1 267 235 1.9 86.5 3.8
5/18/22 - 0900 59.1 56.6 81 51.9 0.00 73.3 30.1 0.6 WSW | 256 3.2 271 73 1.3 67.0 3.8
5/18/22 - 0800 56.8 55.6 85 51.6 0.00 73.1 30.1 1.5 SSE | 147 4.1 272 30 1.9 62.0 3.8
5/18/22 - 0700 55.8 55.0 86 51.4 0.00 73.2 30.2 1.3 ESE | 116 4.3 273 6 2.4 58.8 3.8
5/18/22 - 0600 55.4 53.5 88 51.4 0.00 74.4 30.2 0.8 E | 87 3.3 274 -4 1.4 57.6 3.8
5/18/22 - 0500 53.8 52.1 89 49.5 0.00 74.8 30.2 0.4 S | 175 1.7 284 -15 0.0 50.6 3.8
5/18/22 - 0400 54.1 52.6 88 49.8 0.00 74.8 30.2 0.5 S | 191 1.5 280 -21 0.0 49.1 3.8
5/18/22 - 0300 54.9 53.1 86 50.0 0.00 74.2 30.3 0.2 S | 178 1.2 271 -25 0.0 47.9 3.8
5/18/22 - 0200 55.3 54.2 85 50.2 0.00 75.2 30.2 0.3 SSE | 165 2.0 263 -34 0.0 48.7 3.8
5/18/22 - 0100 55.8 55.0 82 50.1 0.00 74.8 30.3 0.6 S | 188 2.0 258 -50 0.0 50.5 3.8
5/18/22 - 0000 57.7 55.8 79 50.4 0.00 74.9 30.3 0.5 SSW | 192 2.1 274 -58 0.0 50.7 3.8
5/17/22 - 2300 59.6 57.5 75 50.7 0.00 74.9 30.3 0.3 S | 185 1.5 272 -64 0.0 54.2 3.8
5/17/22 - 2200 61.6 59.4 70 50.9 0.00 76.0 30.3 0.2 SE | 142 2.2 271 -70 0.7 57.9 3.8
5/17/22 - 2100 65.4 61.4 64 50.7 0.00 74.5 30.3 0.5 SSE | 160 2.1 269 -73 0.8 65.5 3.8
5/17/22 - 2000 68.8 65.1 58 51.4 0.00 75.3 30.3 1.8 SE | 140 4.8 268 -60 2.4 73.2 3.8
5/17/22 - 1900 72.3 68.6 52 52.2 0.00 74.2 30.3 3.3 SSE | 162 7.5 266 47 3.3 80.7 3.8
5/17/22 - 1800 76.4 71.7 48 52.8 0.00 73.6 30.2 3.6 S | 180 8.3 266 202 3.1 87.3 3.8
5/17/22 - 1700 76.8 74.3 46 53.2 0.00 74.2 30.2 3.3 S | 187 8.1 266 352 3.2 92.8 3.8
5/17/22 - 1600 78.0 75.0 45 53.5 0.00 74.4 30.1 3.1 SSE | 161 8.2 266 478 3.3 103.4 3.8
5/17/22 - 1500 77.4 75.1 45 53.5 0.00 73.4 30.1 2.4 SSE | 154 7.1 266 572 3.1 115.8 3.8
5/17/22 - 1400 76.9 73.8 47 53.6 0.00 73.6 30.1 2.5 ENE | 65 7.4 265 626 4.6 128.8 3.8
5/17/22 - 1300 74.8 70.1 49 53.1 0.00 73.6 30.1 2.1 NE | 50 5.8 265 637 3.2 134.4 3.8
5/17/22 - 1200 72.6 68.2 53 52.5 0.00 73.4 30.1 1.8 NE | 35 6.6 265 597 2.9 131.6 3.8
5/17/22 - 1100 68.2 60.6 65 52.0 0.00 74.2 30.1 1.3 ENE | 58 4.3 266 440 2.2 113.7 3.8
5/17/22 - 1000 61.4 58.4 74 51.4 0.00 73.7 30.2 1.3 SSW | 203 5.2 268 160 3.3 77.3 3.8
5/17/22 - 0900 58.8 57.7 76 50.9 0.00 73.8 30.2 1.1 E | 83 4.8 270 94 1.9 69.0 3.8
5/17/22 - 0800 57.8 53.5 79 49.8 0.00 74.2 30.3 0.4 NNE | 27 2.7 271 69 0.5 64.3 3.8
5/17/22 - 0700 53.6 50.2 86 47.6 0.00 74.0 30.3 0.1 SSW | 196 0.9 267 8 0.0 50.2 3.8
5/17/22 - 0600 51.1 50.2 86 46.6 0.00 74.5 30.3 0.1 SSE | 167 1.1 275 -23 0.0 44.0 3.8
5/17/22 - 0500 51.6 50.6 84 46.3 0.00 74.5 30.4 0.3 S | 177 1.9 267 -34 0.0 45.9 3.8
5/17/22 - 0400 52.5 51.3 82 46.9 0.00 74.9 30.4 0.3 S | 180 1.4 259 -45 0.0 47.5 3.8
5/17/22 - 0300 53.7 52.1 80 46.9 0.00 74.9 30.4 0.5 SSW | 192 2.1 262 -57 0.0 48.9 3.8
5/17/22 - 0200 55.7 53.6 77 47.6 0.00 74.9 30.5 0.3 S | 189 1.2 273 -60 0.0 51.0 3.8
5/17/22 - 0100 57.7 55.6 75 49.1 0.00 75.5 30.4 0.3 E | 94 2.5 273 -66 0.8 53.2 3.8
5/17/22 - 0000 59.9 57.6 72 49.7 0.00 74.5 30.5 0.2 E | 94 1.5 272 -69 0.6 55.9 3.8
5/16/22 - 2300 61.4 59.8 70 50.7 0.00 75.4 30.5 0.7 ENE | 67 4.6 270 -72 4.1 59.2 3.8
5/16/22 - 2200 63.1 61.2 66 50.5 0.00 75.3 30.5 0.7 ENE | 62 4.0 269 -74 2.6 62.0 3.8
5/16/22 - 2100 66.1 63.0 62 50.9 0.00 76.5 30.5 1.2 NE | 56 3.4 268 -76 2.8 66.4 3.8
5/16/22 - 2000 71.6 66.0 55 51.9 0.00 75.2 30.4 1.2 NE | 45 3.9 267 -62 2.4 75.7 3.8
5/16/22 - 1900 76.1 71.6 49 53.3 0.00 75.1 30.4 1.6 NE | 36 5.0 266 46 2.2 82.9 3.8
5/16/22 - 1800 79.4 75.4 45 54.3 0.00 74.1 30.3 2.2 NE | 45 5.2 265 200 2.6 88.5 3.8
5/16/22 - 1700 83.7 79.1 40 54.7 0.00 74.6 30.3 2.3 NE | 50 6.2 265 345 3.1 96.6 3.8
5/16/22 - 1600 84.0 81.8 38 54.8 0.00 73.9 30.2 2.3 NE | 54 6.2 264 472 3.1 105.5 3.8
5/16/22 - 1500 85.2 82.3 37 54.7 0.00 73.6 30.2 2.4 NE | 40 5.1 264 556 2.4 122.9 3.8
5/16/22 - 1400 85.5 81.5 37 54.3 0.00 73.1 30.1 2.6 NE | 52 7.9 264 615 3.5 147.7 3.8
5/16/22 - 1300 84.8 80.8 31 49.6 0.00 72.8 30.1 1.8 N | 360 6.4 263 629 3.2 158.1 3.8
5/16/22 - 1200 81.1 77.0 34 48.8 0.00 73.5 30.1 1.5 NNE | 26 4.6 263 597 2.5 148.1 3.8
5/16/22 - 1100 77.2 71.3 43 50.4 0.00 73.1 30.1 1.3 N | 8 5.4 263 525 2.5 135.9 3.8
5/16/22 - 1000 72.0 65.4 55 51.3 0.00 72.8 30.2 1.4 NNW | 348 5.8 264 413 2.4 127.2 3.8
5/16/22 - 0900 65.6 59.9 69 51.6 0.00 72.8 30.3 1.0 NNE | 33 3.9 266 149 2.0 98.1 3.8
5/16/22 - 0800 60.1 57.4 78 51.9 0.00 73.1 30.3 0.7 ENE | 70 3.5 270 -14 2.3 63.6 3.8
5/16/22 - 0700 57.6 53.2 83 49.9 0.00 73.8 30.3 0.7 SE | 130 2.5 273 -23 1.0 55.2 3.8
5/16/22 - 0600 54.4 52.9 80 47.6 0.00 75.1 30.4 0.7 S | 190 2.0 266 -51 0.0 48.4 3.8
5/16/22 - 0500 56.2 54.2 78 48.2 0.00 74.2 30.4 0.4 S | 185 1.8 273 -54 0.0 48.6 3.8
5/16/22 - 0400 56.6 55.6 74 47.8 0.00 74.3 30.4 0.3 S | 189 1.2 271 -52 0.0 49.1 3.8
5/16/22 - 0300 57.8 55.6 73 47.9 0.00 74.2 30.4 0.5 S | 181 2.1 270 -57 0.0 50.9 3.8
5/16/22 - 0200 59.1 56.9 70 48.4 0.00 75.0 30.5 0.6 S | 184 2.1 269 -58 0.0 53.1 3.8
5/16/22 - 0100 61.8 59.0 65 48.6 0.00 74.5 30.5 0.4 SE | 137 2.6 269 -63 0.2 57.2 3.8
5/16/22 - 0000 64.6 61.5 58 47.9 0.00 74.8 30.5 0.7 ESE | 116 2.4 267 -67 0.0 59.4 3.8
5/15/22 - 2300 68.2 64.5 47 45.6 0.00 75.2 30.4 0.5 E | 98 2.8 266 -71 1.6 62.6 3.8
5/15/22 - 2200 70.9 68.1 34 40.6 0.00 76.0 30.5 0.7 ESE | 107 3.9 264 -72 1.5 63.2 3.8
5/15/22 - 2100 75.0 70.5 29 37.8 0.00 75.2 30.5 0.3 SSE | 165 2.1 264 -73 0.2 67.9 3.8
5/15/22 - 2000 83.2 75.1 20 34.7 0.00 75.1 30.4 0.4 W | 269 3.6 263 -70 1.3 83.2 3.8
5/15/22 - 1900 88.2 82.9 16 35.2 0.00 75.2 30.4 2.5 W | 265 7.6 262 36 2.5 90.4 3.8
5/15/22 - 1800 89.8 87.9 14 32.6 0.00 74.2 30.3 2.3 SW | 236 8.3 261 191 2.2 94.3 3.8
5/15/22 - 1700 90.1 84.5 19 39.5 0.00 74.3 30.3 1.4 NW | 306 7.3 262 256 2.6 96.6 3.8
5/15/22 - 1600 87.8 85.2 23 44.8 0.00 74.4 30.3 3.2 WNW | 282 14.5 262 319 4.8 106.2 3.8
5/15/22 - 1500 90.4 86.1 19 41.2 0.00 73.6 30.2 4.6 S | 178 12.0 262 502 4.4 130.6 3.8
5/15/22 - 1400 90.3 87.8 20 43.2 0.00 72.6 30.1 2.8 ESE | 109 8.2 262 553 3.8 133.9 3.8
5/15/22 - 1300 92.3 87.3 18 40.1 0.00 73.0 30.1 2.0 E | 87 6.6 262 436 3.3 161.7 3.8
5/15/22 - 1200 89.9 84.6 19 39.6 0.00 71.8 30.1 1.7 NE | 55 5.5 261 518 2.5 158.8 3.8
5/15/22 - 1100 87.3 81.0 20 38.5 0.00 73.3 30.1 1.6 NE | 48 5.4 261 468 2.3 145.1 3.8
5/15/22 - 1000 81.5 75.5 24 37.8 0.00 73.0 30.1 1.2 NE | 39 4.7 261 348 1.3 130.9 3.8
5/15/22 - 0900 75.9 68.5 32 39.6 0.00 74.1 30.3 0.6 NNE | 13 3.6 261 168 1.1 113.6 3.8
5/15/22 - 0800 68.7 60.2 42 40.2 0.00 74.1 30.3 0.3 NNE | 25 2.2 264 11 0.0 67.6 3.8
5/15/22 - 0700 60.4 55.6 51 39.4 0.00 73.6 30.4 0.2 SE | 143 1.3 266 -25 0.0 52.4 3.8
5/15/22 - 0600 56.4 55.0 50 37.5 0.00 74.4 30.4 0.3 S | 176 1.7 267 -53 0.0 46.7 3.8
5/15/22 - 0500 57.4 55.6 48 37.2 0.00 74.1 30.4 0.5 SSE | 159 2.2 266 -57 0.0 46.5 3.8
5/15/22 - 0400 58.7 57.1 45 36.9 0.00 73.7 30.4 0.3 S | 183 1.8 266 -59 0.0 46.5 3.8
5/15/22 - 0300 61.1 58.2 43 36.9 0.00 74.2 30.5 0.3 S | 178 1.3 266 -63 0.0 48.4 3.8
5/15/22 - 0200 63.0 60.9 40 36.9 0.00 74.4 30.5 0.3 SSE | 167 1.3 265 -65 0.0 51.7 3.8
5/15/22 - 0100 66.3 62.8 36 36.7 0.00 74.7 30.5 0.4 SSE | 162 1.4 264 -68 0.0 55.9 3.8
5/15/22 - 0000 68.7 65.5 29 34.0 0.00 74.5 30.4 0.4 S | 169 3.1 264 -67 0.0 60.1 3.8
5/14/22 - 2300 75.5 68.6 24 32.8 0.00 74.1 30.5 0.3 SSE | 154 2.5 263 -75 0.4 66.4 3.8
5/14/22 - 2200 78.1 75.5 19 31.6 0.00 73.7 30.4 1.9 SSW | 204 7.0 262 -89 2.5 69.5 3.8
5/14/22 - 2100 80.7 77.9 17 31.4 0.00 74.5 30.4 2.1 SSW | 205 5.3 262 -92 1.6 73.2 3.8
5/14/22 - 2000 87.1 80.5 14 29.7 0.00 74.6 30.4 1.5 W | 262 4.4 262 -79 2.5 86.2 3.8
5/14/22 - 1900 91.5 87.0 13 32.2 0.00 73.4 30.3 1.5 NW | 309 7.1 261 32 3.1 91.8 3.8
5/14/22 - 1800 94.8 91.5 13 34.5 0.00 72.8 30.3 1.5 NW | 313 6.4 261 180 3.2 98.2 3.8
5/14/22 - 1700 96.8 94.0 13 36.1 0.00 72.3 30.2 2.3 WNW | 284 9.5 261 331 3.9 105.1 3.8
5/14/22 - 1600 95.4 93.6 12 33.0 0.00 72.7 30.1 4.2 S | 191 9.6 261 457 3.6 114.6 3.8
5/14/22 - 1500 96.5 94.1 12 35.6 0.00 71.8 30.1 4.2 SSE | 167 8.4 261 552 3.1 137.1 3.8
5/14/22 - 1400 98.3 94.5 8 26.5 0.00 71.4 30.0 1.9 SSE | 164 6.5 260 593 2.2 157.2 3.8
5/14/22 - 1300 95.3 92.1 9 25.8 0.00 71.0 30.0 1.9 ESE | 119 5.2 260 623 3.4 165.2 3.8
5/14/22 - 1200 93.1 88.6 11 29.0 0.00 71.7 30.0 1.2 E | 83 4.9 260 585 2.7 161.3 3.8
5/14/22 - 1100 89.4 84.2 13 30.4 0.00 71.2 30.0 1.5 E | 86 5.4 259 521 2.4 147.0 3.8
5/14/22 - 1000 85.8 78.3 17 33.5 0.00 71.3 30.1 1.0 NE | 47 4.0 260 412 2.7 137.5 3.8
5/14/22 - 0900 78.4 66.9 29 37.6 0.00 70.5 30.2 0.7 ENE | 66 4.4 261 137 2.0 108.4 3.8
5/14/22 - 0800 67.0 56.9 42 38.3 0.00 72.9 30.3 0.2 NNE | 29 1.8 265 -27 0.0 58.6 3.8
5/14/22 - 0700 57.0 52.5 46 33.4 0.00 71.7 30.3 0.5 SSE | 161 2.2 266 -40 0.0 46.4 3.8
5/14/22 - 0600 54.9 52.7 42 31.4 0.00 73.2 30.3 0.4 SSE | 157 2.4 266 -57 0.0 44.1 3.8
5/14/22 - 0500 55.8 54.4 40 31.1 0.00 72.9 30.3 0.2 S | 182 1.2 266 -58 0.0 44.8 3.8
5/14/22 - 0400 57.6 55.0 43 34.0 0.00 73.1 30.3 0.7 S | 176 2.5 266 -60 0.0 46.3 3.8
5/14/22 - 0300 58.7 56.6 42 34.6 0.00 73.5 30.3 0.6 S | 171 2.5 266 -61 0.0 49.2 3.8
5/14/22 - 0200 60.7 58.0 40 34.8 0.00 74.0 30.4 0.7 S | 176 2.7 265 -64 0.3 51.5 3.8
5/14/22 - 0100 62.7 59.9 37 35.0 0.00 74.0 30.4 0.9 S | 183 3.2 264 -66 0.8 51.4 3.8
5/14/22 - 0000 65.1 62.4 34 34.8 0.00 74.5 30.4 0.7 S | 184 2.6 264 -66 0.0 53.5 3.8
5/13/22 - 2300 67.1 64.9 31 34.4 0.00 73.4 30.4 0.5 S | 171 1.6 264 -69 0.0 58.6 3.8
5/13/22 - 2200 74.9 67.0 25 32.4 0.00 73.8 30.3 0.6 S | 178 2.6 263 -76 0.5 65.0 3.8
5/13/22 - 2100 78.3 74.8 18 29.4 0.00 74.3 30.3 2.2 SSW | 202 4.3 262 -89 1.6 73.5 3.8
5/13/22 - 2000 84.7 78.3 14 28.6 0.00 74.5 30.3 3.0 SW | 234 7.2 262 -83 2.4 82.9 3.8
5/13/22 - 1900 88.8 84.4 13 29.4 0.00 72.9 30.2 3.9 W | 265 9.4 261 27 3.9 90.9 3.8
5/13/22 - 1800 92.0 88.4 13 32.2 0.00 71.3 30.2 5.0 WSW | 240 10.4 262 185 4.0 97.6 3.8
5/13/22 - 1700 92.1 90.5 13 33.3 0.00 71.6 30.1 4.9 S | 180 9.3 261 336 4.0 107.1 3.8
5/13/22 - 1600 96.7 91.2 10 27.8 0.00 72.3 30.1 2.8 SE | 130 9.7 261 307 3.7 116.9 3.8
5/13/22 - 1500 97.1 94.0 8 24.7 0.00 70.5 30.0 1.6 NNW | 342 6.8 260 355 2.9 139.6 3.8
5/13/22 - 1400 94.9 91.9 9 26.4 0.00 71.0 30.0 1.9 N | 8 6.5 260 391 2.4 151.0 3.8
5/13/22 - 1300 92.4 88.1 11 28.4 0.00 71.1 29.9 2.5 N | 9 10.1 260 410 3.8 161.2 3.8
5/13/22 - 1200 88.1 85.2 13 29.2 0.00 70.9 29.9 3.6 NNE | 14 10.6 260 534 3.4 146.0 3.8
5/13/22 - 1100 86.2 80.5 15 30.6 0.00 71.4 29.9 2.7 N | 3 10.7 260 507 3.7 135.8 3.8
5/13/22 - 1000 81.0 75.3 17 30.3 0.00 71.2 30.0 1.9 N | 353 8.3 261 401 3.8 129.6 3.8
5/13/22 - 0900 75.4 69.9 20 28.8 0.00 70.1 30.1 1.9 NNW | 347 8.6 261 129 4.5 105.6 3.8
5/13/22 - 0800 70.2 67.2 22 28.2 0.00 71.6 30.1 1.1 NW | 317 6.6 263 -35 2.3 66.9 3.8
5/13/22 - 0700 67.6 52.6 32 29.4 0.00 71.8 30.1 1.7 WNW | 293 9.7 264 -48 2.6 57.3 3.8
5/13/22 - 0600 54.7 52.5 40 30.2 0.00 71.3 30.2 0.6 S | 174 2.7 266 -59 0.0 43.6 3.8
5/13/22 - 0500 55.7 54.0 40 30.9 0.00 72.2 30.2 0.7 SSE | 150 2.5 266 -62 0.6 44.8 3.8
5/13/22 - 0400 57.4 54.7 38 30.6 0.00 71.1 30.2 0.9 SSE | 156 2.5 266 -217 0.6 46.1 3.8
5/13/22 - 0300 58.5 56.4 36 30.2 0.00 71.6 30.2 1.2 SSE | 168 4.4 266 -260 1.8 48.1 3.8
5/13/22 - 0200 59.0 57.1 35 30.7 0.00 72.0 30.2 1.3 SSE | 158 3.0 266 -257 1.0 49.9 3.8
5/13/22 - 0100 58.6 56.5 41 33.7 0.00 72.1 30.2 1.2 S | 176 3.7 266 -256 1.7 49.5 3.8
5/13/22 - 0000 59.6 56.9 39 33.8 0.00 71.8 30.3 0.6 S | 179 2.5 266 -245 0.2 51.7 3.8
5/12/22 - 2300 62.4 59.3 35 33.1 0.00 71.0 30.3 0.4 SSE | 147 2.7 265 -273 0.1 54.8 3.8
5/12/22 - 2200 66.7 61.8 29 31.8 0.00 72.0 30.2 1.1 S | 188 4.1 264 -275 1.3 60.5 3.8
5/12/22 - 2100 69.8 66.5 23 29.3 0.00 71.7 30.2 2.6 SW | 229 6.8 263 -309 1.9 65.4 3.8
5/12/22 - 2000 73.3 69.6 20 28.1 0.00 70.9 30.2 4.2 WSW | 237 7.4 263 -300 2.7 72.2 3.8
5/12/22 - 1900 76.5 73.1 16 25.4 0.00 70.6 30.2 5.7 WSW | 241 11.0 262 -160 4.4 82.1 3.8
5/12/22 - 1800 79.2 76.2 14 24.3 0.00 70.7 30.1 6.0 WSW | 240 12.0 262 108 5.0 86.7 3.8
5/12/22 - 1700 83.8 78.4 13 26.0 0.00 71.2 30.1 6.6 WSW | 243 13.8 262 200 5.9 96.1 3.8
5/12/22 - 1600 87.5 82.5 9 20.7 0.00 70.4 30.1 3.3 W | 265 11.5 261 385 3.6 104.4 3.8
5/12/22 - 1500 86.0 82.5 9 18.2 0.00 70.6 30.0 2.5 WNW | 296 10.7 261 505 4.5 123.7 3.8
5/12/22 - 1400 84.5 82.1 9 19.4 0.00 70.7 30.0 2.4 NNW | 330 11.2 261 606 4.6 142.6 3.8
5/12/22 - 1300 83.5 79.1 11 20.9 0.00 70.3 30.0 1.6 NNW | 341 7.8 260 622 4.2 145.3 3.8
5/12/22 - 1200 79.4 76.4 12 20.8 0.00 70.3 29.9 1.8 NNE | 18 6.3 260 587 3.7 145.4 3.8
5/12/22 - 1100 76.8 73.0 13 21.5 0.00 69.5 29.9 2.1 N | 11 8.6 260 518 2.2 128.0 3.8
5/12/22 - 1000 73.3 68.2 17 23.7 0.00 69.4 30.0 2.4 N | 5 8.3 261 409 2.9 118.4 3.8
5/12/22 - 0900 68.5 62.5 22 25.1 0.00 70.5 30.0 1.9 N | 352 8.9 261 120 3.2 100.5 3.8
5/12/22 - 0800 62.6 58.4 26 25.6 0.00 69.4 30.1 1.1 NW | 319 6.9 264 -35 3.9 60.4 3.8
5/12/22 - 0700 58.6 50.6 30 24.9 0.00 69.4 30.1 1.0 WNW | 297 5.8 265 -55 1.8 48.2 3.8
5/12/22 - 0600 51.4 49.4 43 28.4 0.00 70.8 30.1 1.3 SSE | 156 4.1 267 -66 1.2 42.1 3.8
5/12/22 - 0500 54.1 50.7 38 27.4 0.00 71.3 30.2 1.3 SSE | 162 3.5 266 -70 1.2 46.4 3.8
5/12/22 - 0400 58.6 53.4 30 26.0 0.00 70.1 30.2 0.9 S | 170 4.0 265 -76 1.5 49.0 3.8
5/12/22 - 0300 58.4 52.8 32 25.9 0.00 71.0 30.1 0.8 SSE | 167 2.9 266 -76 1.8 50.8 3.8
5/12/22 - 0200 59.9 58.0 26 24.8 0.00 70.3 30.2 0.6 NNW | 334 6.3 264 -83 3.2 52.6 3.8
5/12/22 - 0100 61.0 59.4 24 23.0 0.00 70.6 30.2 0.9 NNW | 335 10.1 264 -85 3.6 54.9 3.8
5/12/22 - 0000 61.7 60.6 22 21.7 0.00 71.1 30.2 1.6 N | 350 8.2 264 -90 3.3 56.6 3.8
5/11/22 - 2300 62.0 61.4 19 19.4 0.00 70.2 30.2 1.8 NNW | 332 12.1 264 -96 5.0 56.7 3.8
5/11/22 - 2200 62.0 60.2 23 22.7 0.00 70.7 30.2 1.7 WNW | 302 7.6 264 -102 4.5 55.6 3.8
5/11/22 - 2100 62.0 60.4 32 30.7 0.00 70.5 30.2 1.7 W | 280 6.4 264 -100 2.0 58.5 3.8
5/11/22 - 2000 65.8 61.8 31 32.1 0.00 71.6 30.2 1.9 WNW | 291 7.5 264 -83 3.3 67.0 3.8
5/11/22 - 1900 68.5 65.8 27 31.5 0.00 70.3 30.2 2.1 WNW | 286 8.4 264 34 3.7 72.8 3.8
5/11/22 - 1800 71.2 68.1 23 29.9 0.00 71.3 30.1 2.5 WNW | 292 11.4 263 186 4.9 77.5 3.8
5/11/22 - 1700 71.5 67.7 21 28.3 0.00 69.5 30.1 3.6 W | 279 11.5 263 341 4.6 83.4 3.8
5/11/22 - 1600 72.0 67.5 23 29.3 0.00 69.8 30.1 5.1 WSW | 242 13.1 263 470 4.8 93.0 3.8
5/11/22 - 1500 72.2 68.9 17 23.0 0.00 69.7 30.1 2.0 NW | 307 6.7 262 557 3.5 109.8 3.8
5/11/22 - 1400 70.8 67.7 18 23.3 0.00 69.5 30.1 1.9 N | 349 7.4 262 618 3.1 127.1 3.8
5/11/22 - 1300 69.4 65.7 18 21.8 0.00 69.2 30.1 2.5 N | 10 9.9 262 630 3.3 130.6 3.8
5/11/22 - 1200 66.4 63.5 21 24.2 0.00 69.4 30.0 2.1 N | 359 7.7 262 600 3.6 128.6 3.8
5/11/22 - 1100 63.6 59.5 27 26.8 0.00 69.2 30.0 2.6 N | 360 9.2 262 537 3.1 109.6 3.8
5/11/22 - 1000 60.0 57.3 30 27.6 0.00 69.4 30.1 2.4 N | 352 8.4 263 403 3.9 100.0 3.8
5/11/22 - 0900 57.7 52.9 36 28.6 0.00 70.2 30.1 1.5 NNW | 347 6.9 263 91 3.3 89.1 3.8
5/11/22 - 0800 53.2 49.8 41 28.6 0.00 69.6 30.2 1.0 NNW | 334 6.1 266 -55 3.5 50.7 3.8
5/11/22 - 0700 49.9 42.5 54 29.5 0.00 70.4 30.2 1.0 SE | 143 3.3 268 -75 1.1 40.8 3.8
5/11/22 - 0600 44.0 42.1 57 29.0 0.00 69.9 30.2 0.7 SSE | 167 2.8 269 -98 1.5 34.0 3.8
5/11/22 - 0500 44.2 42.4 56 28.7 0.00 70.5 30.3 0.8 SSE | 162 3.1 269 -132 1.4 34.6 3.8
5/11/22 - 0400 45.4 43.8 52 27.8 0.00 71.0 30.3 0.6 S | 170 2.0 268 -61 0.9 36.3 3.8
5/11/22 - 0300 46.2 44.5 51 28.3 0.00 71.1 30.3 0.8 S | 172 2.5 268 -63 0.6 37.5 3.8
5/11/22 - 0200 47.7 45.9 51 29.6 0.00 70.9 30.4 0.7 SSE | 157 2.3 269 -66 0.0 38.5 3.8
5/11/22 - 0100 48.0 46.5 58 33.3 0.00 71.5 30.4 0.8 SSE | 159 4.0 269 -69 1.5 38.7 3.8
5/11/22 - 0000 48.9 46.8 65 36.6 0.00 71.5 30.4 0.6 S | 190 1.7 269 -72 0.0 39.6 3.8
5/10/22 - 2300 51.9 48.4 61 37.5 0.00 71.6 30.4 0.5 S | 181 1.9 269 -123 0.0 43.9 3.8
5/10/22 - 2200 54.2 51.8 55 37.2 0.00 71.2 30.5 1.2 SSW | 202 3.2 267 -189 0.9 48.5 3.8
5/10/22 - 2100 57.2 53.9 48 36.3 0.00 70.7 30.5 1.8 SW | 234 6.2 266 -187 2.0 53.5 3.8
5/10/22 - 2000 60.2 57.0 42 35.1 0.00 71.5 30.5 2.9 SW | 236 8.5 266 -184 3.1 60.3 3.8
5/10/22 - 1900 63.8 59.9 33 32.0 0.00 70.5 30.5 5.2 WSW | 254 12.9 264 -129 4.6 67.1 3.8
5/10/22 - 1800 66.1 62.9 28 30.9 0.00 70.7 30.4 5.5 WSW | 257 13.7 264 11 5.3 73.2 3.8
5/10/22 - 1700 69.2 65.3 25 29.9 0.00 70.6 30.4 5.5 WSW | 258 13.5 263 189 6.4 82.9 3.8
5/10/22 - 1600 70.6 67.4 22 29.1 0.00 70.7 30.3 5.0 WSW | 247 12.2 263 269 5.4 89.9 3.8
5/10/22 - 1500 71.6 68.2 22 29.4 0.00 69.9 30.3 4.7 W | 269 13.9 263 362 6.2 108.8 3.8
5/10/22 - 1400 69.6 67.8 25 31.7 0.00 70.0 30.3 5.5 SW | 220 11.8 263 410 4.9 127.1 3.8
5/10/22 - 1300 69.8 67.3 24 30.5 0.00 69.8 30.3 4.9 SW | 235 13.3 262 456 7.3 133.9 3.8
5/10/22 - 1200 69.6 66.2 21 26.4 0.00 69.9 30.3 4.1 SW | 219 10.8 262 602 4.4 137.2 3.8
5/10/22 - 1100 68.4 63.4 24 28.0 0.00 69.3 30.3 1.7 ENE | 69 6.2 262 494 2.7 121.6 3.8
5/10/22 - 1000 63.6 59.0 31 30.6 0.00 70.1 30.4 1.4 ESE | 123 4.8 262 353 3.0 115.5 3.8
5/10/22 - 0900 59.0 53.4 43 33.3 0.00 69.4 30.4 0.8 NE | 52 3.5 264 25 2.3 86.1 3.8
5/10/22 - 0800 53.5 46.4 59 36.1 0.00 70.5 30.5 0.6 S | 170 2.4 267 -126 1.1 51.1 3.8
5/10/22 - 0700 46.6 42.4 71 35.2 0.00 70.8 30.5 0.1 SW | 226 1.0 270 -174 0.0 38.6 3.8
5/10/22 - 0600 43.4 41.8 72 34.2 0.00 71.1 30.5 0.5 S | 175 1.8 272 -190 0.0 34.3 3.8
5/10/22 - 0500 44.7 43.2 71 34.9 0.00 71.1 30.5 0.4 SSE | 163 1.6 272 -158 0.0 34.6 3.8
5/10/22 - 0400 45.1 43.2 67 34.0 0.00 71.1 30.6 0.4 S | 180 1.4 271 -86 0.0 35.0 3.8
5/10/22 - 0300 46.2 44.3 66 34.3 0.00 71.2 30.6 0.4 S | 176 1.8 270 -59 0.0 37.1 3.8
5/10/22 - 0200 49.0 46.1 61 35.1 0.00 71.6 30.6 0.6 S | 178 2.8 269 -63 0.5 38.4 3.8
5/10/22 - 0100 48.0 46.2 64 35.3 0.00 71.5 30.7 0.7 S | 190 2.5 269 -63 0.0 39.1 3.8
5/10/22 - 0000 50.0 47.2 61 35.8 0.00 71.3 30.7 0.5 S | 179 2.6 269 -81 0.0 41.4 3.8
5/9/22 - 2300 52.6 49.0 56 35.5 0.00 72.1 30.7 0.6 SSW | 201 2.2 268 -250 0.0 46.2 3.8
5/9/22 - 2200 53.8 52.3 53 36.1 0.00 71.7 30.7 1.9 SSW | 201 5.1 267 -274 1.8 49.0 3.8
5/9/22 - 2100 57.3 53.5 47 35.2 0.00 71.4 30.8 2.9 SW | 217 7.1 266 -243 2.5 53.9 3.8
5/9/22 - 2000 61.4 57.3 36 32.3 0.00 74.5 30.7 4.0 WSW | 245 9.4 266 -204 2.9 61.3 3.8
5/9/22 - 1900 65.0 61.2 30 30.9 0.00 72.2 30.7 4.8 W | 260 10.8 264 -158 4.8 70.1 3.8
5/9/22 - 1800 67.1 64.4 27 30.8 0.00 71.6 30.7 5.0 W | 260 11.0 264 -13 4.3 75.8 3.8
5/9/22 - 1700 68.7 65.5 28 33.1 0.00 72.3 30.7 5.0 SW | 236 12.4 264 154 4.7 83.2 3.8
5/9/22 - 1600 68.8 66.4 29 34.0 0.00 71.2 30.7 5.0 SSW | 204 11.3 264 283 4.7 90.5 3.8
5/9/22 - 1500 68.5 66.4 29 34.4 0.00 71.3 30.6 5.1 SSE | 157 11.1 264 359 4.6 107.8 3.8
5/9/22 - 1400 68.4 66.3 28 33.6 0.00 71.6 30.6 5.2 SSE | 160 13.5 263 419 4.8 130.1 3.8
5/9/22 - 1300 69.9 67.2 26 32.0 0.00 71.5 30.6 3.3 SSW | 193 9.2 263 399 4.9 138.5 3.8
5/9/22 - 1200 69.4 65.7 25 30.6 0.00 70.1 30.6 2.0 W | 265 9.5 262 338 3.8 136.3 3.8
5/9/22 - 1100 65.8 61.9 28 30.0 0.00 70.8 30.7 1.6 N | 349 6.2 263 474 3.1 120.9 3.8
5/9/22 - 1000 62.0 59.1 30 29.2 0.00 71.0 30.7 1.5 SSW | 209 4.9 263 407 2.7 113.8 3.8
5/9/22 - 0900 59.3 53.7 35 28.5 0.00 70.8 30.8 1.2 NE | 37 3.9 263 103 1.8 89.3 3.8
5/9/22 - 0800 54.0 50.3 41 29.2 0.00 71.0 30.9 0.6 SE | 143 2.7 266 -27 0.7 48.9 3.8
5/9/22 - 0700 50.4 43.4 58 31.6 0.00 71.3 30.9 1.0 SSE | 164 3.3 269 -47 0.1 40.6 3.8
5/9/22 - 0600 45.1 43.4 59 31.1 0.00 71.9 30.9 0.9 S | 171 2.3 270 -61 0.4 36.4 3.8
5/9/22 - 0500 46.8 44.2 55 30.5 0.00 73.5 31.0 0.8 S | 171 3.1 270 -63 0.5 37.7 3.8
5/9/22 - 0400 48.4 46.3 54 31.4 0.00 74.8 31.0 0.9 S | 169 3.2 269 -63 1.1 42.3 3.8
5/9/22 - 0300 49.4 46.9 64 36.4 0.00 72.6 31.0 0.8 S | 169 2.5 271 -64 0.3 42.6 3.8
5/9/22 - 0200 51.6 48.7 68 39.9 0.00 74.8 31.0 0.6 S | 172 3.3 271 -216 0.9 43.4 3.8
5/9/22 - 0100 52.0 50.2 72 42.5 0.00 75.4 31.1 0.7 SSE | 155 3.4 271 -229 1.4 45.6 3.8
5/9/22 - 0000 53.6 51.8 69 43.1 0.00 72.9 31.1 0.5 ESE | 111 2.9 271 -219 0.4 50.2 3.8
5/8/22 - 2300 54.7 53.2 69 44.0 0.00 73.4 31.1 0.6 E | 93 4.4 270 -220 1.6 53.2 3.8
5/8/22 - 2200 56.5 54.4 67 44.5 0.00 73.1 31.1 1.3 E | 83 5.7 269 -225 2.1 56.2 3.8
5/8/22 - 2100 60.5 56.4 60 44.2 0.00 72.9 31.1 1.6 ENE | 72 5.9 269 -158 3.1 59.1 3.8
5/8/22 - 2000 64.0 60.4 44 40.5 0.00 73.1 31.1 1.5 ESE | 118 4.7 267 -133 1.5 65.8 3.8
5/8/22 - 1900 65.5 63.8 41 40.3 0.00 72.9 31.1 3.2 SSE | 157 7.5 266 -86 3.5 71.8 3.8
5/8/22 - 1800 68.5 65.0 43 43.3 0.00 73.1 31.1 4.6 SSE | 150 9.9 266 68 4.5 76.9 3.8
5/8/22 - 1700 68.9 67.9 43 44.9 0.00 72.4 31.0 4.6 SSE | 166 9.6 266 226 4.4 85.2 3.8
5/8/22 - 1600 69.1 66.8 46 46.3 0.00 72.5 31.0 5.0 SSE | 168 9.3 266 348 4.9 91.8 3.8
5/8/22 - 1500 68.8 66.3 48 47.2 0.00 72.5 31.0 5.3 S | 169 10.4 266 393 4.6 95.9 3.8
5/8/22 - 1400 66.6 64.1 53 47.9 0.00 69.9 31.1 5.5 S | 171 11.1 266 262 4.1 95.1 3.8
5/8/22 - 1300 66.1 64.3 56 49.1 0.00 70.2 31.1 4.7 SSE | 152 10.5 266 90 4.2 88.1 3.8
5/8/22 - 1200 67.9 64.9 55 49.4 0.00 73.3 31.1 3.1 SE | 130 7.4 266 50 3.4 96.5 3.8
5/8/22 - 1100 68.2 65.0 48 46.2 0.00 72.7 31.1 1.7 S | 180 6.0 266 50 2.7 102.4 3.8
5/8/22 - 1000 68.5 64.3 49 46.3 0.00 72.8 31.1 1.6 ENE | 65 4.8 266 156 2.6 116.5 3.8
5/8/22 - 0900 64.3 59.6 63 49.2 0.00 73.0 31.1 1.1 W | 266 4.5 266 88 2.0 103.3 3.8
5/8/22 - 0800 59.9 55.3 78 51.1 0.00 73.1 31.2 1.0 SSW | 205 4.1 270 -135 1.3 69.0 3.8
5/8/22 - 0700 55.4 53.6 85 49.8 0.00 73.3 31.2 0.1 SSW | 192 1.4 275 -196 0.0 52.8 3.8
5/8/22 - 0600 55.0 53.8 83 49.3 0.00 73.4 31.2 0.2 S | 176 1.7 275 -197 0.0 53.9 3.8
5/8/22 - 0500 55.4 52.6 85 49.6 0.00 73.6 31.2 0.4 S | 187 1.5 274 -187 0.0 53.8 3.8
5/8/22 - 0400 53.4 52.1 86 48.5 0.00 73.6 31.3 0.3 S | 176 1.5 271 -200 0.0 47.6 3.8
5/8/22 - 0300 53.6 52.6 85 48.6 0.00 73.8 31.3 0.5 S | 186 2.1 269 -183 0.0 47.7 3.8
5/8/22 - 0200 54.2 53.0 83 48.5 0.00 73.9 31.3 0.6 S | 188 2.2 270 -164 0.0 48.4 3.8
5/8/22 - 0100 56.2 54.4 76 47.9 0.00 74.5 31.3 0.6 S | 190 2.3 273 -164 0.1 52.3 3.8
5/8/22 - 0000 58.4 55.7 71 48.0 0.00 74.3 31.3 0.7 E | 101 3.4 271 -159 1.6 55.1 3.8
5/7/22 - 2300 59.5 58.2 67 47.9 0.00 74.1 31.3 0.6 NE | 50 2.9 269 -144 1.4 56.6 3.8
5/7/22 - 2200 61.6 59.2 66 48.9 0.00 72.0 31.3 0.9 NE | 51 3.0 269 -150 1.7 59.0 3.8
5/7/22 - 2100 65.4 61.4 61 49.3 0.00 73.3 31.3 1.0 NE | 46 4.2 268 -165 3.0 64.8 3.8
5/7/22 - 2000 72.1 65.3 49 49.8 0.00 74.7 31.3 2.4 NW | 305 8.1 267 -147 2.8 72.6 3.8
5/7/22 - 1900 75.7 72.0 43 50.0 0.00 71.8 31.3 4.1 W | 259 8.9 266 -97 3.8 79.6 3.8
5/7/22 - 1800 78.4 75.3 44 53.1 0.00 73.7 31.2 3.9 SW | 229 8.5 266 6 3.7 85.7 3.8
5/7/22 - 1700 79.0 77.4 45 55.0 0.00 73.3 31.2 4.1 S | 172 8.5 266 171 4.2 91.9 3.8
5/7/22 - 1600 79.4 78.4 43 54.7 0.00 73.1 31.1 4.9 S | 175 10.3 266 308 5.1 101.2 3.8
5/7/22 - 1500 79.6 78.2 42 54.1 0.00 72.9 31.1 3.9 SSE | 167 7.9 266 390 3.9 118.0 3.8
5/7/22 - 1400 80.0 77.1 43 54.5 0.00 72.7 31.1 3.3 SSE | 148 9.3 266 415 4.9 127.9 3.8
5/7/22 - 1300 80.3 76.8 44 55.4 0.00 72.7 31.0 2.4 ENE | 77 6.7 265 360 3.8 137.3 3.8
5/7/22 - 1200 79.0 74.5 43 53.2 0.00 72.6 31.0 2.1 ENE | 59 6.1 264 342 2.8 134.3 3.8
5/7/22 - 1100 76.1 72.1 47 52.2 0.00 72.6 31.0 1.5 NE | 53 4.9